Portada
METAR-TAF:

METAR-TAF

Aeropuertos :

Aeropuerto Internacional Tobías Bolaños

San José, Costa Rica

latitud: 09-57N, longitud: 084-09W, altitud: 994 m

Observación

El informe se hizo hace 13 minutos, a las 17:00 UTC
Viento 12 kt del este
Temperatura 24°C
Humedad 65%
Presión 1017 hPa
Visibilidad 10 km o más
Nubes dispersas a una altura de 3000 ft
Nubes dispersas a una altura de 12000 ft

METAR: MRPV 041700Z 09012KT 9999 SCT030 SCT120 24/17 A3004 NOSIG

Hora: 11:13 (17:13 UTC)

Pronóstico

El informe se hizo hace 6 horas y 13 minutos, a las 11:00 UTC
Pronóstico válido del 04 a las 12 UTC al 05 a las 12 UTC
Viento 8 kt del este
Visibilidad 10 km o más
Escasas nubes a una altura de 3500 ft
Cielo nuboso a una altura de 10000 ft
Temporalmente
del 04 a las 20 UTC al 04 a las 24 UTC
Viento 6 kt del oeste-noroeste
Cielo nuboso a una altura de 3000 ft
lluvia

TAF: MRPV 041100Z 0412/0512 10008KT 9999 FEW035 BKN100 TX26/0418Z TN18/0510Z TEMPO 0420/0424 29006KT RA BKN030

Observaciones y pronósticos meteorológicos de más de 4000 aeropuertos (mensajes METAR y TAF).

Los puntos amarillos y rojos representan las estaciones disponibles.

Ponga el ratón en el punto deseado para ver el nombre de la estación.

Haga clic para ver las observaciones y los pronósticos meteorológicos.

Para cambiar el mapa : haga clic en los botones verdes con una cruz de color negro para hacer un zoom, en el botón verde con un guión para alejar o en las flechas verdes para mapas adyacentes.


METAR-TAF: